createdAt,value
2023-06-09T00:00:50.441Z,5.53
2023-06-09T00:03:17.533Z,4.55
2023-06-09T00:05:44.375Z,5.28
2023-06-09T00:08:12.375Z,5.30
2023-06-09T00:10:39.064Z,5.32
2023-06-09T00:13:07.125Z,5.28
2023-06-09T00:15:33.873Z,4.78
2023-06-09T00:18:03.099Z,5.30
2023-06-09T00:20:33.901Z,5.13
2023-06-09T00:23:01.081Z,4.95
2023-06-09T00:25:27.773Z,5.40
2023-06-09T00:27:54.429Z,5.63
2023-06-09T00:30:34.107Z,5.22
2023-06-09T00:33:06.699Z,4.78
2023-06-09T00:35:33.703Z,5.57
2023-06-09T00:38:00.426Z,5.60
2023-06-09T00:40:27.310Z,4.93
2023-06-09T00:42:54.060Z,5.88
2023-06-09T00:45:20.735Z,5.18
2023-06-09T00:47:48.757Z,4.72
2023-06-09T00:50:17.465Z,5.82
2023-06-09T00:52:45.636Z,4.65
2023-06-09T00:55:13.819Z,5.22
2023-06-09T00:57:43.506Z,5.20
2023-06-09T01:00:13.960Z,5.55
2023-06-09T01:02:41.111Z,4.40
2023-06-09T01:05:09.324Z,5.15
2023-06-09T01:07:46.766Z,5.88
2023-06-09T01:10:19.303Z,5.15
2023-06-09T01:12:54.141Z,5.32
2023-06-09T01:15:24.418Z,5.15
2023-06-09T01:17:55.851Z,5.43
2023-06-09T01:20:28.531Z,4.40
2023-06-09T01:23:05.477Z,4.90
2023-06-09T01:25:36.646Z,4.70
2023-06-09T01:28:06.077Z,5.10
2023-06-09T01:30:37.098Z,4.95
2023-06-09T01:33:07.042Z,4.82
2023-06-09T01:35:33.960Z,5.03
2023-06-09T01:38:01.025Z,4.93
2023-06-09T01:40:28.000Z,5.68
2023-06-09T01:42:58.572Z,5.57
2023-06-09T01:45:25.596Z,5.65
2023-06-09T01:47:52.364Z,5.68
2023-06-09T01:50:26.931Z,6.15
2023-06-09T01:52:58.058Z,6.05
2023-06-09T01:55:30.937Z,6.82
2023-06-09T01:58:04.033Z,6.35
2023-06-09T02:00:31.403Z,6.97
2023-06-09T02:03:00.909Z,7.28
2023-06-09T02:05:29.263Z,7.00
2023-06-09T02:07:57.205Z,6.97
2023-06-09T02:10:24.075Z,7.28
2023-06-09T02:12:50.726Z,7.65
2023-06-09T02:15:19.480Z,7.45
2023-06-09T02:17:46.338Z,7.53
2023-06-09T02:20:14.082Z,8.00
2023-06-09T02:22:40.886Z,7.78
2023-06-09T02:25:09.551Z,7.57
2023-06-09T02:27:36.332Z,7.50
2023-06-09T02:30:03.490Z,7.82
2023-06-09T02:32:30.814Z,8.15
2023-06-09T02:34:57.614Z,8.55
2023-06-09T02:37:24.305Z,8.07
2023-06-09T02:39:51.146Z,7.38
2023-06-09T02:42:17.778Z,8.00
2023-06-09T02:44:48.955Z,6.85
2023-06-09T02:47:15.914Z,8.13
2023-06-09T02:49:43.186Z,7.72
2023-06-09T02:52:10.264Z,7.43
2023-06-09T02:54:37.004Z,7.93
2023-06-09T02:57:04.651Z,8.60
2023-06-09T02:59:31.506Z,8.10
2023-06-09T03:01:58.144Z,7.47
2023-06-09T03:04:24.779Z,7.80
2023-06-09T03:06:53.983Z,8.30
2023-06-09T03:09:20.675Z,8.02
2023-06-09T03:11:47.355Z,8.20
2023-06-09T03:14:14.289Z,7.70
2023-06-09T03:16:40.966Z,8.02
2023-06-09T03:19:08.397Z,8.02
2023-06-09T03:21:37.291Z,7.53
2023-06-09T03:24:06.620Z,7.50
2023-06-09T03:26:33.258Z,8.25
2023-06-09T03:28:59.963Z,8.10
2023-06-09T03:31:26.746Z,7.93
2023-06-09T03:33:53.444Z,7.90
2023-06-09T03:36:21.858Z,7.97
2023-06-09T03:38:48.468Z,7.40
2023-06-09T03:41:18.683Z,7.85
2023-06-09T03:43:45.395Z,7.60
2023-06-09T03:46:12.143Z,7.85
2023-06-09T03:48:39.949Z,6.97
2023-06-09T03:51:06.572Z,8.07
2023-06-09T03:53:33.234Z,8.43
2023-06-09T03:55:59.850Z,7.85
2023-06-09T03:58:27.174Z,8.43
2023-06-09T04:00:54.116Z,7.72
2023-06-09T04:03:21.390Z,7.70
2023-06-09T04:05:48.384Z,7.20
2023-06-09T04:08:15.273Z,7.55
2023-06-09T04:10:42.484Z,7.20
2023-06-09T04:13:09.892Z,8.45
2023-06-09T04:15:37.152Z,7.50
2023-06-09T04:18:04.962Z,6.63
2023-06-09T04:20:35.100Z,8.00
2023-06-09T04:23:02.824Z,7.75
2023-06-09T04:25:30.305Z,7.40
2023-06-09T04:27:57.402Z,7.55
2023-06-09T04:30:26.174Z,6.75
2023-06-09T04:32:54.056Z,7.30
2023-06-09T04:35:21.312Z,7.05
2023-06-09T04:37:49.477Z,7.22
2023-06-09T04:40:22.234Z,6.88
2023-06-09T04:42:51.832Z,6.80
2023-06-09T04:45:19.610Z,6.80
2023-06-09T04:47:49.239Z,6.90
2023-06-09T04:50:16.718Z,6.85
2023-06-09T04:52:44.437Z,6.40
2023-06-09T04:55:12.876Z,7.20
2023-06-09T04:57:39.533Z,6.85
2023-06-09T05:00:08.301Z,7.07
2023-06-09T05:02:35.177Z,6.13
2023-06-09T05:05:01.943Z,6.43
2023-06-09T05:07:29.313Z,6.68
2023-06-09T05:09:55.929Z,6.13
2023-06-09T05:12:22.533Z,5.75
2023-06-09T05:14:49.177Z,6.32
2023-06-09T05:17:16.312Z,5.65
2023-06-09T05:19:44.996Z,6.05
2023-06-09T05:22:13.148Z,5.43
2023-06-09T05:24:40.491Z,6.63
2023-06-09T05:27:08.157Z,6.03
2023-06-09T05:29:35.333Z,5.88
2023-06-09T05:32:02.057Z,6.30
2023-06-09T05:34:32.705Z,5.22
2023-06-09T05:36:59.598Z,5.30
2023-06-09T05:39:26.596Z,4.53
2023-06-09T05:41:54.065Z,4.95
2023-06-09T05:44:20.701Z,5.40
2023-06-09T05:46:47.375Z,5.47
2023-06-09T05:49:14.068Z,5.75
2023-06-09T05:51:40.744Z,5.72
2023-06-09T05:54:07.436Z,4.90
2023-06-09T05:56:34.183Z,4.60
2023-06-09T05:59:03.188Z,4.90
2023-06-09T06:01:30.559Z,5.22
2023-06-09T06:03:57.699Z,4.93
2023-06-09T06:06:24.436Z,4.88
2023-06-09T06:08:51.069Z,4.75
2023-06-09T06:11:17.842Z,4.60
2023-06-09T06:13:44.441Z,4.50
2023-06-09T06:16:11.987Z,4.15
2023-06-09T06:18:38.670Z,3.80
2023-06-09T06:21:05.846Z,4.05
2023-06-09T06:23:33.397Z,4.32
2023-06-09T06:26:00.744Z,3.88
2023-06-09T06:28:28.614Z,4.93
2023-06-09T06:30:55.281Z,4.40
2023-06-09T06:33:24.032Z,4.40
2023-06-09T06:35:50.930Z,4.15
2023-06-09T06:38:17.541Z,3.72
2023-06-09T06:40:48.639Z,3.92
2023-06-09T06:43:15.720Z,4.65
2023-06-09T06:45:44.213Z,3.50
2023-06-09T06:48:12.032Z,4.15
2023-06-09T06:50:42.474Z,3.88
2023-06-09T06:53:09.912Z,3.70
2023-06-09T06:55:38.798Z,3.80
2023-06-09T06:58:06.666Z,3.70
2023-06-09T07:00:36.011Z,3.58
2023-06-09T07:03:03.510Z,3.70
2023-06-09T07:05:31.500Z,3.50
2023-06-09T07:07:59.665Z,3.70
2023-06-09T07:10:28.491Z,4.00
2023-06-09T07:13:01.126Z,3.80
2023-06-09T07:15:28.660Z,3.60
2023-06-09T07:17:56.738Z,3.42
2023-06-09T07:20:24.710Z,3.45
2023-06-09T07:22:52.812Z,3.47
2023-06-09T07:25:21.159Z,3.58
2023-06-09T07:27:51.695Z,3.67
2023-06-09T07:30:22.248Z,3.22
2023-06-09T07:32:50.715Z,3.50
2023-06-09T07:35:20.427Z,3.28
2023-06-09T07:37:50.043Z,5.65
2023-06-09T07:40:20.877Z,3.58
2023-06-09T07:42:51.032Z,4.63
2023-06-09T07:45:19.333Z,4.15
2023-06-09T07:47:47.702Z,4.72
2023-06-09T07:50:16.070Z,3.72
2023-06-09T07:52:43.251Z,3.58
2023-06-09T07:55:14.930Z,3.72
2023-06-09T07:57:43.999Z,3.85
2023-06-09T08:00:14.361Z,4.00
2023-06-09T08:02:43.853Z,3.45
2023-06-09T08:05:14.886Z,3.65
2023-06-09T08:07:42.585Z,4.13
2023-06-09T08:10:11.043Z,3.83
2023-06-09T08:12:38.414Z,4.60
2023-06-09T08:15:06.925Z,3.33
2023-06-09T08:17:36.566Z,3.97
2023-06-09T08:20:06.935Z,3.92
2023-06-09T08:22:34.685Z,3.47
2023-06-09T08:25:02.161Z,3.88
2023-06-09T08:27:29.250Z,3.75
2023-06-09T08:29:57.454Z,3.20
2023-06-09T08:32:24.879Z,4.03
2023-06-09T08:34:54.136Z,4.05
2023-06-09T08:37:21.917Z,4.15
2023-06-09T08:39:49.775Z,4.05
2023-06-09T08:42:21.866Z,4.05
2023-06-09T08:44:51.689Z,4.20
2023-06-09T08:47:21.489Z,3.92
2023-06-09T08:49:52.901Z,3.90
2023-06-09T08:52:21.551Z,3.85
2023-06-09T08:54:49.072Z,3.92
2023-06-09T08:57:16.435Z,3.13
2023-06-09T08:59:45.310Z,3.65
2023-06-09T09:02:12.614Z,4.05
2023-06-09T09:04:39.351Z,4.30
2023-06-09T09:07:06.402Z,4.60
2023-06-09T09:09:33.913Z,3.55
2023-06-09T09:12:02.574Z,3.80
2023-06-09T09:14:29.433Z,4.05
2023-06-09T09:16:56.107Z,3.50
2023-06-09T09:19:27.112Z,4.53
2023-06-09T09:21:54.810Z,3.65
2023-06-09T09:24:21.557Z,4.05
2023-06-09T09:26:48.933Z,3.92
2023-06-09T09:29:16.159Z,3.92
2023-06-09T09:31:43.234Z,3.72
2023-06-09T09:34:13.505Z,3.88
2023-06-09T09:36:43.478Z,4.45
2023-06-09T09:39:10.186Z,4.80
2023-06-09T09:41:36.922Z,3.80
2023-06-09T09:44:04.784Z,4.03
2023-06-09T09:46:37.273Z,4.88
2023-06-09T09:49:05.817Z,4.90
2023-06-09T09:51:34.613Z,3.97
2023-06-09T09:54:01.411Z,4.72
2023-06-09T09:56:29.194Z,4.43
2023-06-09T09:58:56.313Z,4.18
2023-06-09T10:01:24.973Z,4.35
2023-06-09T10:03:54.737Z,4.28
2023-06-09T10:06:27.754Z,3.85
2023-06-09T10:08:55.707Z,4.03
2023-06-09T10:11:22.881Z,3.97
2023-06-09T10:13:49.933Z,5.32
2023-06-09T10:16:17.378Z,3.83
2023-06-09T10:18:44.968Z,4.03
2023-06-09T10:21:11.809Z,4.43
2023-06-09T10:23:40.170Z,3.53
2023-06-09T10:26:08.739Z,3.60
2023-06-09T10:28:35.358Z,3.60
2023-06-09T10:31:03.267Z,3.60
2023-06-09T10:33:33.760Z,3.78
2023-06-09T10:36:05.686Z,3.65
2023-06-09T10:38:40.943Z,3.85
2023-06-09T10:41:11.183Z,4.20
2023-06-09T10:44:02.145Z,4.57
2023-06-09T10:46:42.870Z,3.85
2023-06-09T10:49:39.790Z,4.03
2023-06-09T10:52:08.521Z,3.83
2023-06-09T10:54:36.136Z,3.90
2023-06-09T10:57:05.621Z,3.53
2023-06-09T11:00:11.760Z,3.83
2023-06-09T11:02:40.064Z,3.72
2023-06-09T11:05:08.114Z,4.00
2023-06-09T11:07:46.462Z,3.60
2023-06-09T11:10:30.984Z,3.90
2023-06-09T11:12:57.926Z,4.30
2023-06-09T11:15:52.212Z,3.90
2023-06-09T11:18:18.994Z,3.90
2023-06-09T11:21:16.884Z,4.30
2023-06-09T11:24:04.238Z,3.80
2023-06-09T11:26:33.360Z,3.60
2023-06-09T11:29:00.981Z,4.05
2023-06-09T11:31:28.301Z,4.13
2023-06-09T11:33:56.189Z,3.72
2023-06-09T11:36:25.883Z,4.25
2023-06-09T11:38:52.812Z,4.00
2023-06-09T11:41:22.746Z,3.60
2023-06-09T11:43:53.548Z,3.88
2023-06-09T11:46:21.389Z,3.60
2023-06-09T11:49:02.198Z,3.75
2023-06-09T11:51:28.970Z,3.60
2023-06-09T11:53:55.630Z,3.53
2023-06-09T11:56:23.620Z,3.33
2023-06-09T11:58:54.657Z,3.97
2023-06-09T12:01:29.722Z,4.03
2023-06-09T12:03:56.533Z,3.92
2023-06-09T12:06:23.285Z,3.67
2023-06-09T12:08:50.286Z,4.35
2023-06-09T12:11:17.315Z,3.42
2023-06-09T12:13:48.373Z,3.60
2023-06-09T12:16:15.795Z,3.67
2023-06-09T12:18:42.812Z,3.67
2023-06-09T12:21:12.651Z,3.72
2023-06-09T12:23:39.461Z,4.03
2023-06-09T12:26:07.599Z,3.67
2023-06-09T12:28:34.968Z,4.13
2023-06-09T12:31:09.656Z,5.57
2023-06-09T12:33:37.842Z,5.03
2023-06-09T12:36:07.152Z,4.88
2023-06-09T12:38:37.788Z,5.65
2023-06-09T12:41:11.731Z,6.10
2023-06-09T12:43:48.880Z,5.63
2023-06-09T12:46:21.364Z,4.53
2023-06-09T12:49:05.106Z,3.65
2023-06-09T12:51:32.964Z,3.58
2023-06-09T12:54:00.781Z,3.85
2023-06-09T12:56:28.118Z,3.92
2023-06-09T12:58:56.450Z,3.80
2023-06-09T13:01:26.605Z,3.97
2023-06-09T13:03:54.309Z,4.38
2023-06-09T13:06:21.788Z,3.63
2023-06-09T13:08:49.307Z,3.80
2023-06-09T13:11:16.023Z,3.88
2023-06-09T13:13:43.450Z,3.97
2023-06-09T13:16:10.611Z,3.80
2023-06-09T13:18:40.436Z,3.70
2023-06-09T13:21:07.778Z,4.25
2023-06-09T13:23:34.911Z,4.20
2023-06-09T13:26:02.208Z,3.85
2023-06-09T13:28:29.740Z,3.47
2023-06-09T13:30:57.944Z,4.10
2023-06-09T13:33:24.716Z,3.38
2023-06-09T13:35:53.224Z,4.38
2023-06-09T13:38:20.030Z,3.65
2023-06-09T13:40:49.356Z,4.28
2023-06-09T13:43:17.052Z,7.55
2023-06-09T13:45:44.064Z,4.10
2023-06-09T13:48:11.429Z,3.90
2023-06-09T13:50:39.277Z,3.45
2023-06-09T13:53:06.818Z,4.22
2023-06-09T13:55:33.529Z,4.28
2023-06-09T13:58:00.551Z,3.88
2023-06-09T14:00:27.307Z,3.90
2023-06-09T14:02:54.173Z,3.70
2023-06-09T14:05:23.930Z,4.00
2023-06-09T14:07:50.713Z,4.57
2023-06-09T14:10:18.335Z,3.72
2023-06-09T14:12:47.907Z,3.92
2023-06-09T14:15:21.476Z,3.92
2023-06-09T14:17:55.341Z,3.90
2023-06-09T14:20:22.832Z,3.70
2023-06-09T14:22:53.160Z,4.30
2023-06-09T14:25:21.890Z,3.92
2023-06-09T14:27:50.709Z,3.67
2023-06-09T14:30:18.934Z,3.65
2023-06-09T14:32:48.826Z,3.78
2023-06-09T14:35:23.039Z,3.50
2023-06-09T14:37:53.361Z,3.20
2023-06-09T14:40:21.371Z,3.70
2023-06-09T14:42:49.591Z,3.40
2023-06-09T14:45:21.001Z,4.00
2023-06-09T14:47:52.948Z,3.67
2023-06-09T14:50:23.115Z,3.58
2023-06-09T14:52:52.721Z,3.85
2023-06-09T14:55:23.379Z,3.22
2023-06-09T14:57:51.032Z,3.92
2023-06-09T15:00:19.283Z,3.20
2023-06-09T15:02:46.088Z,3.30
2023-06-09T15:05:13.024Z,3.35
2023-06-09T15:07:39.693Z,3.38
2023-06-09T15:10:07.145Z,3.53
2023-06-09T15:12:36.671Z,3.25
2023-06-09T15:15:03.785Z,3.28
2023-06-09T15:17:30.640Z,3.30
2023-06-09T15:19:57.396Z,3.40
2023-06-09T15:22:24.212Z,3.45
2023-06-09T15:24:54.085Z,3.72
2023-06-09T15:27:20.806Z,3.05
2023-06-09T15:29:48.272Z,3.30
2023-06-09T15:32:15.452Z,3.72
2023-06-09T15:34:42.086Z,3.05
2023-06-09T15:37:08.807Z,3.08
2023-06-09T15:39:35.527Z,3.30
2023-06-09T15:42:02.555Z,3.67
2023-06-09T15:44:29.285Z,3.40
2023-06-09T15:46:56.726Z,3.35
2023-06-09T15:49:23.544Z,3.33
2023-06-09T15:51:50.282Z,3.63
2023-06-09T15:54:17.050Z,3.70
2023-06-09T15:56:44.036Z,3.33
2023-06-09T15:59:10.705Z,3.55
2023-06-09T16:01:37.387Z,3.20
2023-06-09T16:04:05.179Z,3.65
2023-06-09T16:06:34.951Z,3.50
2023-06-09T16:09:01.623Z,3.42
2023-06-09T16:11:28.274Z,3.25
2023-06-09T16:13:54.975Z,3.10
2023-06-09T16:16:21.622Z,3.00
2023-06-09T16:18:48.244Z,2.75
2023-06-09T16:21:15.599Z,3.20
2023-06-09T16:23:42.413Z,2.97
2023-06-09T16:26:09.227Z,3.72
2023-06-09T16:28:35.872Z,2.95
2023-06-09T16:31:02.642Z,3.45
2023-06-09T16:33:29.350Z,3.58
2023-06-09T16:35:56.005Z,2.80
2023-06-09T16:38:23.524Z,3.45
2023-06-09T16:40:50.461Z,3.47
2023-06-09T16:43:17.108Z,3.55
2023-06-09T16:45:43.787Z,3.55
2023-06-09T16:48:10.485Z,3.92
2023-06-09T16:50:38.025Z,3.65
2023-06-09T16:53:04.653Z,3.90
2023-06-09T16:55:32.015Z,4.05
2023-06-09T16:57:58.638Z,3.83
2023-06-09T17:00:25.363Z,3.42
2023-06-09T17:02:55.418Z,3.80
2023-06-09T17:05:22.694Z,4.32
2023-06-09T17:07:49.375Z,3.88
2023-06-09T17:10:16.087Z,4.10
2023-06-09T17:12:43.437Z,4.10
2023-06-09T17:15:11.233Z,3.92
2023-06-09T17:17:38.016Z,3.90
2023-06-09T17:20:05.991Z,3.97
2023-06-09T17:22:32.817Z,4.68
2023-06-09T17:24:59.434Z,4.93
2023-06-09T17:27:26.086Z,4.13
2023-06-09T17:30:01.212Z,4.10
2023-06-09T17:32:32.805Z,4.13
2023-06-09T17:35:00.841Z,4.22
2023-06-09T17:37:28.131Z,4.88
2023-06-09T17:39:54.985Z,4.00
2023-06-09T17:42:21.630Z,4.15
2023-06-09T17:44:50.179Z,4.15
2023-06-09T17:47:17.758Z,4.45
2023-06-09T17:49:44.368Z,4.38
2023-06-09T17:52:12.219Z,3.95
2023-06-09T17:54:38.877Z,4.45
2023-06-09T17:57:06.698Z,4.40
2023-06-09T17:59:33.453Z,4.20
2023-06-09T18:02:01.096Z,3.97
2023-06-09T18:04:28.527Z,4.15
2023-06-09T18:06:55.217Z,3.60
2023-06-09T18:09:21.918Z,3.90
2023-06-09T18:11:48.727Z,3.38
2023-06-09T18:14:15.617Z,3.83
2023-06-09T18:16:42.306Z,4.05
2023-06-09T18:19:08.983Z,3.75
2023-06-09T18:21:36.848Z,3.50
2023-06-09T18:24:04.596Z,3.97
2023-06-09T18:26:31.400Z,3.70
2023-06-09T18:28:58.316Z,3.50
2023-06-09T18:31:25.146Z,3.65
2023-06-09T18:33:52.247Z,3.97
2023-06-09T18:36:19.303Z,3.38
2023-06-09T18:38:46.791Z,3.60
2023-06-09T18:41:13.520Z,3.50
2023-06-09T18:43:42.627Z,4.05
2023-06-09T18:46:09.597Z,3.65
2023-06-09T18:48:39.002Z,3.63
2023-06-09T18:51:11.223Z,3.90
2023-06-09T18:53:37.959Z,3.38
2023-06-09T18:56:05.631Z,3.83
2023-06-09T18:58:32.367Z,3.60
2023-06-09T19:00:59.045Z,4.10
2023-06-09T19:03:26.311Z,3.63
2023-06-09T19:05:53.018Z,3.75
2023-06-09T19:08:19.746Z,4.07
2023-06-09T19:10:46.470Z,6.43
2023-06-09T19:13:13.849Z,4.45
2023-06-09T19:15:40.534Z,3.97
2023-06-09T19:18:07.342Z,4.30
2023-06-09T19:20:34.604Z,4.28
2023-06-09T19:23:01.265Z,4.10
2023-06-09T19:25:28.003Z,4.22
2023-06-09T19:27:54.776Z,3.92
2023-06-09T19:30:22.227Z,4.80
2023-06-09T19:32:48.959Z,4.88
2023-06-09T19:35:15.845Z,4.22
2023-06-09T19:37:42.575Z,3.90
2023-06-09T19:40:10.664Z,3.90
2023-06-09T19:42:37.333Z,4.88
2023-06-09T19:45:04.693Z,4.53
2023-06-09T19:47:32.144Z,4.18
2023-06-09T19:49:58.891Z,4.43
2023-06-09T19:52:25.644Z,3.83
2023-06-09T19:54:52.277Z,4.68
2023-06-09T19:57:19.216Z,3.92
2023-06-09T19:59:46.515Z,4.43
2023-06-09T20:02:16.688Z,4.30
2023-06-09T20:04:45.569Z,4.70
2023-06-09T20:07:12.389Z,4.35
2023-06-09T20:09:39.176Z,4.53
2023-06-09T20:12:07.192Z,4.18
2023-06-09T20:14:33.887Z,4.05
2023-06-09T20:17:01.640Z,4.70
2023-06-09T20:19:28.475Z,4.32
2023-06-09T20:21:55.777Z,4.47
2023-06-09T20:24:22.484Z,4.50
2023-06-09T20:26:49.184Z,5.45
2023-06-09T20:29:15.897Z,5.07
2023-06-09T20:31:42.607Z,4.65
2023-06-09T20:34:09.236Z,4.95
2023-06-09T20:36:39.413Z,4.82
2023-06-09T20:39:09.548Z,4.63
2023-06-09T20:41:36.271Z,5.32
2023-06-09T20:44:04.320Z,4.93
2023-06-09T20:46:33.068Z,4.65
2023-06-09T20:49:01.143Z,4.80
2023-06-09T20:51:28.059Z,4.63
2023-06-09T20:53:56.333Z,5.25
2023-06-09T20:56:24.259Z,4.80
2023-06-09T20:58:51.216Z,4.70
2023-06-09T21:01:20.783Z,4.70
2023-06-09T21:03:48.029Z,3.88
2023-06-09T21:06:21.395Z,4.50
2023-06-09T21:08:48.101Z,5.05
2023-06-09T21:11:15.253Z,4.57
2023-06-09T21:13:42.776Z,5.18
2023-06-09T21:16:09.453Z,5.13
2023-06-09T21:18:36.181Z,5.28
2023-06-09T21:21:02.990Z,4.85
2023-06-09T21:23:30.864Z,4.93
2023-06-09T21:25:57.755Z,5.00
2023-06-09T21:28:24.377Z,5.82
2023-06-09T21:30:51.822Z,4.95
2023-06-09T21:33:18.547Z,5.18
2023-06-09T21:35:45.309Z,6.05
2023-06-09T21:38:12.019Z,5.13
2023-06-09T21:40:38.693Z,5.55
2023-06-09T21:43:06.937Z,5.13
2023-06-09T21:45:35.852Z,4.78
2023-06-09T21:48:03.574Z,4.88
2023-06-09T21:50:31.080Z,5.32
2023-06-09T21:52:59.839Z,5.60
2023-06-09T21:55:26.543Z,4.78
2023-06-09T21:57:53.243Z,5.30
2023-06-09T22:00:19.958Z,5.05
2023-06-09T22:02:47.094Z,5.20
2023-06-09T22:05:14.450Z,5.25
2023-06-09T22:07:41.162Z,5.30
2023-06-09T22:10:10.082Z,5.40
2023-06-09T22:12:38.514Z,4.93
2023-06-09T22:15:07.581Z,5.57
2023-06-09T22:17:34.847Z,5.38
2023-06-09T22:20:05.205Z,6.30
2023-06-09T22:22:32.784Z,5.10
2023-06-09T22:24:59.938Z,5.60
2023-06-09T22:27:27.370Z,5.75
2023-06-09T22:29:54.226Z,5.30
2023-06-09T22:32:21.314Z,5.55
2023-06-09T22:34:49.532Z,5.47
2023-06-09T22:37:16.320Z,5.50
2023-06-09T22:39:43.634Z,5.35
2023-06-09T22:42:10.801Z,5.60
2023-06-09T22:44:38.726Z,6.03
2023-06-09T22:47:05.988Z,5.03
2023-06-09T22:49:32.758Z,6.32
2023-06-09T22:52:01.190Z,5.93
2023-06-09T22:54:28.014Z,5.68
2023-06-09T22:56:55.748Z,5.35
2023-06-09T22:59:22.435Z,6.22
2023-06-09T23:01:49.286Z,5.27
2023-06-09T23:04:17.660Z,5.83
2023-06-09T23:06:44.356Z,6.20
2023-06-09T23:09:11.249Z,5.30
2023-06-09T23:11:38.125Z,5.13
2023-06-09T23:14:05.944Z,5.55
2023-06-09T23:16:32.909Z,5.53
2023-06-09T23:19:00.233Z,5.70
2023-06-09T23:21:28.519Z,5.23
2023-06-09T23:23:55.751Z,4.90
2023-06-09T23:26:22.867Z,4.72
2023-06-09T23:28:49.630Z,5.50
2023-06-09T23:31:16.953Z,4.88
2023-06-09T23:33:44.160Z,4.82
2023-06-09T23:36:11.812Z,5.73
2023-06-09T23:38:38.499Z,5.00
2023-06-09T23:41:05.147Z,5.53
2023-06-09T23:43:31.874Z,5.40
2023-06-09T23:45:58.574Z,5.60
2023-06-09T23:48:26.047Z,5.53
2023-06-09T23:50:54.918Z,5.45
2023-06-09T23:53:24.437Z,6.45
2023-06-09T23:55:53.012Z,5.85
2023-06-09T23:58:19.681Z,4.83
